Data for 10/21/2006

Time Sea-Level Adjusted Pressure Absolute Pressure Temperature Relative Humidity Dew Point   
(mb) (inHg) (mb) (inHg) (C) (F) (%) (C) (F)
00:05 1024 30.24 853 25.19 2.2 36 74 -2 28.4
00:10 1024 30.24 853 25.19 2.1 35.9 73 -2.1 28.1
00:15 1024 30.24 853 25.19 2.2 36 74 -1.9 28.7
00:20 1024 30.24 853 25.19 2.1 35.8 76 -1.7 29
00:25 1024 30.24 853 25.19 1.8 35.2 78 -1.6 29
00:30 1024 30.24 853 25.19 1.7 35.1 77 -1.8 28.7
00:35 1024 30.24 853 25.19 1.7 35.1 76 -2.1 28.3
00:40 1024 30.24 853 25.19 1.7 35 75 -2.2 28
00:45 1024 30.24 853 25.19 1.6 34.9 76 -2.2 28
00:50 1024 30.24 853 25.19 1.6 34.8 76 -2.3 27.9
00:55 1024 30.24 853 25.19 1.5 34.6 78 -1.9 28.6
01:00 1024 30.24 853 25.19 1.1 33.9 79 -2.2 28
01:05 1024 30.24 853 25.19 1 33.9 77 -2.5 27.4
01:10 1024 30.24 853 25.19 1.1 34 77 -2.5 27.5
01:15 1024 30.24 853 25.19 1.3 34.3 76 -2.5 27.6
01:20 1024 30.24 853 25.19 1.4 34.5 75 -2.6 27.4
01:25 1024 30.24 853 25.19 1.6 34.8 75 -2.4 27.6
01:30 1024 30.24 853 25.19 1.5 34.8 75 -2.5 27.5
01:35 1024 30.24 853 25.19 1.6 34.8 74 -2.6 27.3
01:40 1024 30.24 853 25.19 1.6 34.8 75 -2.4 27.7
01:45 1024 30.24 853 25.19 1.4 34.6 75 -2.5 27.6
01:50 1024 30.24 853 25.19 1.4 34.4 76 -2.5 27.5
01:55 1024 30.24 854 25.22 1.3 34.4 76 -2.5 27.5
02:00 1024 30.24 854 25.22 1.5 34.6 74 -2.7 27.1
02:05 1024 30.24 854 25.22 1.5 34.7 74 -2.6 27.3
02:10 1024 30.24 854 25.22 1.6 34.8 74 -2.6 27.3
02:15 1024 30.24 854 25.22 1.7 35 72 -2.8 27
02:20 1024 30.24 854 25.22 1.6 34.9 73 -2.7 27.2
02:25 1024 30.24 854 25.22 1.7 35 73 -2.6 27.3
02:30 1024 30.24 854 25.22 1.6 34.9 74 -2.6 27.4
02:35 1024 30.24 854 25.22 1.6 34.9 75 -2.4 27.6
02:40 1025 30.27 854 25.22 1.6 34.9 73 -2.7 27.2
02:45 1025 30.27 854 25.22 1.7 35.1 73 -2.6 27.3
02:50 1025 30.27 854 25.22 1.8 35.2 73 -2.5 27.5
02:55 1025 30.27 854 25.22 1.7 35.1 74 -2.5 27.6
03:00 1025 30.27 854 25.22 1.7 35.1 75 -2.3 27.8
03:05 1025 30.27 854 25.22 1.7 35.1 73 -2.6 27.3
03:10 1025 30.27 854 25.22 1.2 34.2 76 -2.6 27.3
03:15 1025 30.27 854 25.22 0.9 33.6 78 -2.6 27.4
03:20 1025 30.27 854 25.22 0.8 33.5 79 -2.5 27.6
03:25 1024 30.24 854 25.22 0.7 33.2 80 -2.3 27.8
03:30 1024 30.24 854 25.22 0.5 32.9 81 -2.4 27.7
03:35 1024 30.24 854 25.22 0.4 32.8 82 -2.3 27.8
03:40 1024 30.24 853 25.19 0.7 33.2 82 -2.1 28.3
03:45 1024 30.24 853 25.19 0.6 33.1 83 -1.9 28.5
03:50 1024 30.24 854 25.22 0.5 32.9 83 -2 28.4
03:55 1024 30.24 853 25.19 0.5 32.8 84 -1.9 28.6
04:00 1024 30.24 853 25.19 0.5 33 84 -1.8 28.7
04:05 1024 30.24 853 25.19 0.7 33.2 82 -2.1 28.2
04:10 1024 30.24 853 25.19 0.7 33.2 83 -2 28.5
04:15 1024 30.24 853 25.19 0.5 32.8 84 -2 28.4
04:20 1024 30.24 853 25.19 0.4 32.7 83 -2.2 28
04:25 1024 30.24 853 25.19 0.3 32.6 81 -2.6 27.4
04:30 1024 30.24 853 25.19 0.4 32.7 81 -2.6 27.4
04:35 1024 30.24 853 25.19 0.3 32.6 80 -2.7 27.2
04:40 1024 30.24 853 25.19 0.4 32.7 79 -2.8 26.9
04:45 1024 30.24 853 25.19 0.4 32.8 78 -2.9 26.7
04:50 1024 30.24 853 25.19 0.4 32.8 79 -2.9 26.8
04:55 1024 30.24 853 25.19 0.4 32.8 77 -3.1 26.5
05:00 1024 30.24 853 25.19 0.4 32.8 79 -2.9 26.8
05:05 1024 30.24 853 25.19 0.4 32.7 78 -3 26.5
05:10 1024 30.24 853 25.19 0.5 32.8 78 -2.9 26.9
05:15 1024 30.24 853 25.19 0.5 32.9 78 -2.9 26.7
05:20 1024 30.24 853 25.19 0.5 32.9 78 -2.9 26.7
05:25 1024 30.24 853 25.19 0.3 32.5 79 -2.9 26.7
05:30 1024 30.24 853 25.19 0.2 32.4 80 -2.9 26.8
05:35 1024 30.24 853 25.19 0.3 32.5 79 -2.9 26.8
05:40 1024 30.24 853 25.19 0.4 32.7 80 -2.6 27.3
05:45 1024 30.24 853 25.19 0.4 32.8 80 -2.6 27.2
05:50 1024 30.24 853 25.19 0.4 32.7 78 -2.9 26.7
05:55 1024 30.24 853 25.19 0.3 32.6 77 -3.2 26.2
06:00 1024 30.24 853 25.19 0.3 32.6 78 -3.1 26.5
06:05 1024 30.24 853 25.19 0.5 32.8 78 -2.9 26.9
06:10 1024 30.24 853 25.19 0.7 33.2 76 -3.1 26.5
06:15 1024 30.24 853 25.19 0.6 33.1 77 -2.9 26.8
06:20 1024 30.24 853 25.19 0.5 32.9 79 -2.7 27.2
06:25 1024 30.24 853 25.19 0.6 33.1 80 -2.5 27.5
06:30 1024 30.24 853 25.19 0.7 33.3 79 -2.5 27.5
06:35 1024 30.24 853 25.19 0.7 33.3 79 -2.6 27.4
06:40 1024 30.24 854 25.22 0.7 33.3 78 -2.7 27.2
06:45 1024 30.24 853 25.19 0.7 33.2 78 -2.7 27.1
06:50 1024 30.24 853 25.19 0.6 33.1 80 -2.4 27.6
06:55 1024 30.24 854 25.22 0.6 33.1 79 -2.6 27.4
07:00 1024 30.24 854 25.22 0.6 33.1 80 -2.5 27.4
07:05 1024 30.24 854 25.22 0.6 33.1 81 -2.3 27.9
07:10 1024 30.24 854 25.22 0.5 33 82 -2.2 28
07:15 1024 30.24 854 25.22 0.5 32.8 81 -2.5 27.5
07:20 1024 30.24 854 25.22 0.5 32.8 80 -2.6 27.4
07:25 1024 30.24 854 25.22 0.5 33 81 -2.3 27.9
07:30 1024 30.24 854 25.22 0.5 32.9 81 -2.4 27.7
07:35 1024 30.24 854 25.22 0.4 32.7 82 -2.3 27.9
07:40 1024 30.24 854 25.22 0.4 32.8 81 -2.5 27.6
07:45 1024 30.24 854 25.22 0.5 32.9 79 -2.7 27.1
07:50 1025 30.27 854 25.22 0.6 33 80 -2.6 27.4
07:55 1025 30.27 854 25.22 0.5 32.8 82 -2.2 28
08:00 1025 30.27 854 25.22 0.5 32.9 83 -2 28.4
08:05 1025 30.27 854 25.22 0.4 32.8 83 -2.1 28.2
08:10 1025 30.27 854 25.22 0.4 32.8 84 -2 28.4
08:15 1025 30.27 854 25.22 0.5 32.8 81 -2.5 27.5
08:20 1025 30.27 854 25.22 0.4 32.8 82 -2.3 27.9
08:25 1025 30.27 854 25.22 0.5 32.8 83 -2.1 28.2
08:30 1025 30.27 854 25.22 0.4 32.7 85 -1.9 28.6
08:35 1025 30.27 854 25.22 0.4 32.7 86 -1.7 28.9
08:40 1025 30.27 854 25.22 0.4 32.7 87 -1.6 29.2
08:45 1025 30.27 854 25.22 0.3 32.5 88 -1.4 29.4
08:50 1025 30.27 854 25.22 0.1 32.3 91 -1.2 29.9
08:55 1025 30.27 854 25.22 -0.1 31.9 91 -1.4 29.5
09:00 1025 30.27 854 25.22 -0.3 31.4 92 -1.4 29.5
09:05 1025 30.27 854 25.22 -0.4 31.4 93 -1.3 29.6
09:10 1025 30.27 854 25.22 -0.4 31.3 93 -1.3 29.6
09:15 1025 30.27 854 25.22 -0.3 31.5 93 -1.2 29.8
09:20 1025 30.27 854 25.22 -0.2 31.7 93 -1.2 29.9
09:25 1025 30.27 854 25.22 -0.1 31.8 94 -1 30.3
09:30 1025 30.27 854 25.22 -0 32 91 -1.3 29.6
09:35 1025 30.27 854 25.22 -0.2 31.7 91 -1.5 29.3
09:40 1025 30.27 854 25.22 -0.3 31.5 92 -1.4 29.5
09:45 1025 30.27 854 25.22 -0.1 31.7 92 -1.3 29.7
09:50 1025 30.27 854 25.22 -0.1 31.9 93 -1.1 30
09:55 1025 30.27 854 25.22 0 32 91 -1.2 29.8
10:00 1025 30.27 854 25.22 -0.2 31.6 93 -1.2 29.8
10:05 1025 30.27 855 25.25 -0.2 31.6 94 -1.2 29.9
10:10 1025 30.27 855 25.25 -0.4 31.3 94 -1.2 29.8
10:15 1025 30.27 854 25.22 -0.5 31.2 95 -1.2 29.9
10:20 1025 30.27 854 25.22 -0.2 31.6 95 -1 30.2
10:25 1025 30.27 854 25.22 -0.2 31.6 94 -1 30.2
10:30 1025 30.27 854 25.22 -0.1 31.8 94 -0.9 30.4
10:35 1025 30.27 854 25.22 0 32 95 -0.7 30.7
10:40 1025 30.27 854 25.22 0 32.1 94 -0.8 30.6
10:45 1025 30.27 854 25.22 0.1 32.2 93 -0.8 30.5
10:50 1025 30.27 854 25.22 0 32 93 -0.9 30.3
10:55 1025 30.27 854 25.22 0.1 32.2 94 -0.7 30.7
11:00 1025 30.27 855 25.25 0.3 32.6 93 -0.7 30.8
11:05 1025 30.27 855 25.25 0.4 32.6 93 -0.7 30.7
11:10 1025 30.27 855 25.25 0.4 32.6 93 -0.6 30.9
11:15 1025 30.27 855 25.25 0.5 32.8 94 -0.4 31.2
11:20 1025 30.27 855 25.25 0.5 33 93 -0.5 31.1
11:25 1025 30.27 855 25.25 0.4 32.7 94 -0.5 31.1
11:30 1025 30.27 855 25.25 0.3 32.6 94 -0.5 31
11:35 1025 30.27 855 25.25 0.3 32.5 94 -0.6 30.8
11:40 1025 30.27 855 25.25 0.1 32.1 94 -0.8 30.6
11:45 1025 30.27 854 25.22 -0.1 31.9 95 -0.7 30.7
11:50 1025 30.27 854 25.22 0.1 32.2 96 -0.5 31.1
11:55 1025 30.27 854 25.22 0.4 32.8 94 -0.4 31.3
12:00 1025 30.27 854 25.22 0.7 33.2 94 -0.2 31.6
12:05 1025 30.27 854 25.22 1.1 34 92 -0.1 31.9
12:10 1025 30.27 855 25.25 1.4 34.5 90 -0.1 31.9
12:15 1025 30.27 855 25.25 1.3 34.3 90 -0.2 31.7
12:20 1025 30.27 854 25.22 0.9 33.7 91 -0.3 31.4
12:25 1025 30.27 854 25.22 1 33.8 91 -0.3 31.4
12:30 1025 30.27 854 25.22 1.4 34.5 89 -0.3 31.5
12:35 1025 30.27 854 25.22 1.3 34.3 89 -0.3 31.5
12:40 1025 30.27 854 25.22 1.4 34.4 88 -0.5 31.1
12:45 1025 30.27 854 25.22 1.4 34.5 87 -0.5 31.1
12:50 1025 30.27 854 25.22 1.3 34.3 87 -0.7 30.8
12:55 1025 30.27 854 25.22 0.9 33.7 88 -0.8 30.6
13:00 1025 30.27 854 25.22 1 33.8 89 -0.6 30.9
13:05 1025 30.27 854 25.22 1.1 33.9 87 -0.8 30.5
13:10 1025 30.27 854 25.22 1 33.8 90 -0.4 31.2
13:15 1025 30.27 854 25.22 1.1 34.1 90 -0.3 31.4
13:20 1025 30.27 854 25.22 1.2 34.2 90 -0.3 31.4
13:25 1025 30.27 854 25.22 1.3 34.4 89 -0.3 31.4
13:30 1025 30.27 854 25.22 1.3 34.3 89 -0.3 31.4
13:35 1025 30.27 854 25.22 1.2 34.2 88 -0.5 31.1
13:40 1025 30.27 854 25.22 1.3 34.3 88 -0.5 31.2
13:45 1025 30.27 854 25.22 1.3 34.4 88 -0.5 31.2
13:50 1025 30.27 854 25.22 1.3 34.3 88 -0.4 31.2
13:55 1025 30.27 854 25.22 1.2 34.2 90 -0.2 31.6
14:00 1025 30.27 854 25.22 1.5 34.8 88 -0.2 31.6
14:05 1025 30.27 854 25.22 1.5 34.6 89 -0.2 31.6
14:10 1025 30.27 854 25.22 1.3 34.4 89 -0.3 31.5
14:15 1025 30.27 854 25.22 1.4 34.5 89 -0.2 31.6
14:20 1025 30.27 854 25.22 1.5 34.7 88 -0.3 31.5
14:25 1025 30.27 854 25.22 1.4 34.5 88 -0.4 31.2
14:30 1025 30.27 854 25.22 1.2 34.2 90 -0.3 31.5
14:35 1025 30.27 854 25.22 1.4 34.5 88 -0.4 31.4
14:40 1025 30.27 854 25.22 1.5 34.7 88 -0.3 31.4
14:45 1025 30.27 854 25.22 1.9 35.5 86 -0.2 31.7
14:50 1025 30.27 854 25.22 2.5 36.4 84 0.1 32.2
14:55 1025 30.27 854 25.22 2.5 36.4 82 -0.3 31.4
15:00 1025 30.27 854 25.22 2.5 36.4 83 -0.2 31.6
15:05 1025 30.27 854 25.22 2.5 36.4 84 -0 32
15:10 1025 30.27 854 25.22 2.7 36.9 80 -0.4 31.3
15:15 1025 30.27 854 25.22 2.7 36.9 81 -0.1 31.7
15:20 1025 30.27 854 25.22 2.8 37 79 -0.5 31.2
15:25 1025 30.27 854 25.22 2.3 36.2 81 -0.5 31
15:30 1025 30.27 854 25.22 2.1 35.7 82 -0.7 30.8
15:35 1025 30.27 854 25.22 2.3 36.2 81 -0.6 30.9
15:40 1025 30.27 854 25.22 2.6 36.7 79 -0.7 30.7
15:45 1025 30.27 854 25.22 2.8 37 79 -0.4 31.3
15:50 1025 30.27 854 25.22 2.5 36.5 82 -0.2 31.6
15:55 1025 30.27 854 25.22 2 35.6 85 -0.3 31.5
16:00 1025 30.27 854 25.22 1.7 35 83 -0.9 30.4
16:05 1025 30.27 854 25.22 1.6 34.8 83 -1 30.1
16:10 1025 30.27 854 25.22 1.7 35.1 83 -0.9 30.4
16:15 1025 30.27 854 25.22 1.8 35.2 82 -0.9 30.3
16:20 1025 30.27 854 25.22 1.7 35.1 83 -0.9 30.4
16:25 1025 30.27 854 25.22 2 35.6 83 -0.6 30.8
16:30 1025 30.27 854 25.22 2.1 35.8 81 -0.8 30.5
16:35 1025 30.27 854 25.22 1.8 35.2 82 -0.9 30.3
16:40 1025 30.27 854 25.22 2 35.7 80 -1 30.2
16:45 1025 30.27 854 25.22 1.9 35.5 82 -0.8 30.6
16:50 1025 30.27 854 25.22 2.1 35.9 80 -0.9 30.4
16:55 1025 30.27 854 25.22 2.1 35.8 82 -0.6 30.8
17:00 1025 30.27 854 25.22 2.1 35.7 82 -0.7 30.7
17:05 1025 30.27 854 25.22 1.9 35.4 82 -0.8 30.5
17:10 1025 30.27 854 25.22 2.1 35.7 82 -0.7 30.8
17:15 1025 30.27 854 25.22 2 35.7 83 -0.6 31
17:20 1025 30.27 854 25.22 2.1 35.7 81 -0.9 30.5
17:25 1025 30.27 854 25.22 2.1 35.7 82 -0.6 30.9
17:30 1025 30.27 854 25.22 1.9 35.5 83 -0.6 31
17:35 1025 30.27 854 25.22 1.7 35.1 82 -1 30.2
17:40 1025 30.27 854 25.22 1.4 34.6 84 -1 30.2
17:45 1025 30.27 854 25.22 1.5 34.7 84 -1 30.2
17:50 1025 30.27 855 25.25 1.5 34.8 83 -1.1 30.1
17:55 1025 30.27 855 25.25 1.4 34.5 85 -0.9 30.3
18:00 1025 30.27 855 25.25 1.4 34.5 84 -1 30.1
18:05 1025 30.27 855 25.25 1.4 34.5 84 -1 30.1
18:10 1025 30.27 855 25.25 1.4 34.6 82 -1.4 29.5
18:15 1026 30.3 855 25.25 1.5 34.7 81 -1.3 29.6
18:20 1026 30.3 855 25.25 1.5 34.7 83 -1.1 30
18:25 1026 30.3 855 25.25 1.7 35 83 -1 30.2
18:30 1026 30.3 855 25.25 1.6 35 83 -1 30.3
18:35 1026 30.3 855 25.25 1.5 34.8 83 -1 30.3
18:40 1026 30.3 855 25.25 1.4 34.5 85 -0.8 30.5
18:45 1026 30.3 855 25.25 1.3 34.4 87 -0.6 31
18:50 1026 30.3 855 25.25 1.1 33.9 88 -0.6 30.9
18:55 1026 30.3 855 25.25 0.8 33.4 90 -0.6 30.8
19:00 1026 30.3 855 25.25 0.7 33.2 91 -0.6 30.9
19:05 1026 30.3 855 25.25 0.8 33.4 91 -0.5 31.1
19:10 1026 30.3 855 25.25 0.8 33.4 91 -0.6 31
19:15 1026 30.3 855 25.25 0.8 33.5 90 -0.6 30.9
19:20 1026 30.3 855 25.25 0.9 33.6 88 -0.8 30.5
19:25 1026 30.3 855 25.25 1 33.8 87 -1 30.2
19:30 1026 30.3 855 25.25 1 33.8 86 -1.1 29.9
19:35 1026 30.3 855 25.25 0.9 33.7 87 -1 30.1
19:40 1026 30.3 855 25.25 0.8 33.5 86 -1.2 29.9
19:45 1026 30.3 855 25.25 0.9 33.6 86 -1.2 29.8
19:50 1026 30.3 855 25.25 1 33.9 84 -1.3 29.7
19:55 1026 30.3 855 25.25 1 33.7 85 -1.3 29.6
20:00 1026 30.3 855 25.25 1.1 34 84 -1.3 29.7
20:05 1026 30.3 855 25.25 1.2 34.2 85 -1.1 30.1
20:10 1026 30.3 855 25.25 1.3 34.4 84 -1 30.2
20:15 1026 30.3 855 25.25 1.3 34.4 85 -1 30.2
20:20 1026 30.3 855 25.25 1.4 34.4 84 -1 30.2
20:25 1026 30.3 855 25.25 1.3 34.4 86 -0.8 30.5
20:30 1026 30.3 855 25.25 1.3 34.4 85 -0.9 30.4
20:35 1026 30.3 855 25.25 1.3 34.3 86 -0.8 30.6
20:40 1026 30.3 855 25.25 1.2 34.1 87 -0.8 30.6
20:45 1026 30.3 856 25.28 1.1 34 87 -0.8 30.5
20:50 1026 30.3 856 25.28 1.1 34 87 -0.8 30.6
20:55 1026 30.3 856 25.28 1.1 34 87 -0.8 30.6
21:00 1026 30.3 856 25.28 1.1 34 88 -0.6 30.8
21:05 1026 30.3 856 25.28 1.1 34 88 -0.6 30.9
21:10 1026 30.3 856 25.28 1.1 33.9 90 -0.4 31.3
21:15 1027 30.33 856 25.28 1 33.8 91 -0.3 31.4
21:20 1027 30.33 856 25.28 0.9 33.6 92 -0.2 31.6
21:25 1027 30.33 856 25.28 0.8 33.5 93 -0.2 31.7
21:30 1027 30.33 856 25.28 0.7 33.3 94 -0.2 31.7
21:35 1027 30.33 856 25.28 0.6 33.1 94 -0.2 31.7
21:40 1027 30.33 856 25.28 0.6 33.2 94 -0.2 31.7
21:45 1027 30.33 856 25.28 0.7 33.2 94 -0.2 31.7
21:50 1027 30.33 856 25.28 0.5 32.9 95 -0.2 31.6
21:55 1027 30.33 856 25.28 0.4 32.7 95 -0.3 31.5
22:00 1027 30.33 856 25.28 0.5 32.9 95 -0.2 31.7
22:05 1027 30.33 856 25.28 0.5 32.9 95 -0.2 31.7
22:10 1027 30.33 856 25.28 0.5 32.9 95 -0.2 31.7
22:15 1027 30.33 856 25.28 0.5 32.8 95 -0.3 31.5
22:20 1027 30.33 856 25.28 0.5 32.9 95 -0.3 31.5
22:25 1027 30.33 856 25.28 0.5 32.9 95 -0.3 31.5
22:30 1027 30.33 856 25.28 0.5 33 94 -0.3 31.4
22:35 1027 30.33 856 25.28 0.5 33 94 -0.3 31.5
22:40 1027 30.33 856 25.28 0.6 33.1 94 -0.3 31.5
22:45 1027 30.33 856 25.28 0.6 33.1 94 -0.3 31.5
22:50 1027 30.33 856 25.28 0.5 32.9 94 -0.4 31.3
22:55 1027 30.33 856 25.28 0.5 32.9 94 -0.4 31.3
23:00 1027 30.33 856 25.28 0.2 32.4 95 -0.5 31.1
23:05 1027 30.33 856 25.28 0.1 32.1 95 -0.6 30.9
23:10 1027 30.33 856 25.28 0 32 96 -0.6 30.9
23:15 1027 30.33 856 25.28 0 32.1 96 -0.6 31
23:20 1027 30.33 856 25.28 -0 32 95 -0.7 30.7
23:25 1027 30.33 856 25.28 -0.1 31.9 94 -0.9 30.4
23:30 1027 30.33 856 25.28 -0.3 31.5 95 -1 30.2
23:35 1027 30.33 856 25.28 -0.5 31 96 -1.1 30
23:40 1027 30.33 856 25.28 -0.6 30.9 96 -1.1 30
23:45 1027 30.33 856 25.28 -0.6 30.9 97 -1.1 30
23:50 1027 30.33 856 25.28 -0.5 31 97 -1 30.2
23:55 1027 30.33 856 25.28 -0.5 31.1 96 -1 30.2
24:00 1027 30.33 856 25.28 -0.5 31.1 96 -1.1 30.1